Allock, Kentucky
Current Conditions -  °F | °C
As of 9:35 PM on Thursday 20 Nov 2014 (Local Time) from KI35 Reporting Station
Clear Clear  
Wind Chill:   Ceiling: Unl
Heat Index:   Visibility: 10mi
Dew Point: -8°   Wind: 0mph
Humidity: 52%   Direction: NA
Pressure: 30.21"   Gusts: NA
Location:  37.1842°N, 83.1053°W
Report Text: KI35 210235Z AUTO 00000KT 10SM CLR 01/M08 A3021 RMK AO1
Loading
Personal Weather Stations






























Interactive Weather Map New forecast layout! Learn more

10-Day Weather Forecast

Advertisements
Track Severe Weather on mobile